Time;durP1;ratioP1;P1;durP2;ratioP2;P2;SDS_P1;SDS_P2;PMS_P1;PMS_P2;Temp;Humidity;BMP_temperature;BMP_pressure;BME280_temperature;BME280_humidity;BME280_pressure;Samples;Min_cycle;Max_cycle;Signal;HPM_P1;HPM_P2
2021/05/26 00:00:32;;;;;;;0.70;0.70;;;14.50;99.90;;;;;;20699076;28;20743;-70
2021/05/26 00:10:35;;;;;;;1.33;0.20;;;14.50;99.90;;;;;;20699996;28;20187;-69
2021/05/26 00:20:39;;;;;;;6.33;0.87;;;14.30;99.90;;;;;;20701297;28;20226;-70
2021/05/26 00:30:46;;;;;;;0.37;0.37;;;14.20;99.90;;;;;;20728626;28;20591;-70
2021/05/26 00:40:51;;;;;;;0.30;0.27;;;13.90;99.90;;;;;;20697813;28;20223;-70
2021/05/26 00:50:54;;;;;;;1.50;0.70;;;13.60;99.90;;;;;;20691824;28;20199;-70
2021/05/26 01:00:57;;;;;;;0.20;0.10;;;13.50;99.90;;;;;;20684650;28;20581;-69
2021/05/26 01:11:04;;;;;;;0.57;0.57;;;13.60;99.90;;;;;;20702614;28;20198;-71
2021/05/26 01:21:09;;;;;;;0.20;0.10;;;13.60;99.90;;;;;;20686133;28;20226;-69
2021/05/26 01:31:13;;;;;;;18.33;0.63;;;13.60;99.90;;;;;;20702839;28;20214;-73
2021/05/26 01:41:16;;;;;;;0.50;0.50;;;13.50;99.90;;;;;;20704042;28;20241;-72
2021/05/26 01:51:20;;;;;;;0.20;0.10;;;13.30;99.90;;;;;;20701149;28;20463;-72
2021/05/26 02:01:25;;;;;;;5.90;0.50;;;13.40;99.90;;;;;;20704623;28;20237;-71
2021/05/26 02:21:51;;;;;;;0.20;0.20;;;13.20;99.90;;;;;;20700685;28;20280;-72
2021/05/26 02:31:55;;;;;;;0.30;0.20;;;13.20;99.90;;;;;;20693328;28;20196;-73
2021/05/26 02:41:59;;;;;;;0.67;0.30;;;13.20;99.90;;;;;;20600335;28;20271;-72
2021/05/26 02:52:03;;;;;;;0.20;0.20;;;13.10;99.90;;;;;;20619980;28;20270;-71
2021/05/26 03:02:06;;;;;;;0.23;0.20;;;13.00;99.90;;;;;;20617828;28;20237;-70
2021/05/26 03:12:10;;;;;;;1.53;0.30;;;13.10;99.90;;;;;;20667046;28;20206;-71
2021/05/26 03:22:13;;;;;;;1.07;0.97;;;13.10;99.90;;;;;;20694701;28;20223;-70
2021/05/26 03:32:18;;;;;;;0.80;0.27;;;13.20;99.90;;;;;;20694769;28;20280;-70
2021/05/26 03:42:21;;;;;;;0.63;0.63;;;13.10;99.90;;;;;;20676153;28;20376;-72
2021/05/26 03:52:25;;;;;;;0.63;0.53;;;13.10;99.90;;;;;;20693785;28;20195;-70
2021/05/26 04:02:28;;;;;;;2.53;0.50;;;13.10;99.90;;;;;;20693873;28;20241;-70
2021/05/26 04:12:32;;;;;;;3.90;0.77;;;13.10;99.90;;;;;;20695335;28;20195;-70
2021/05/26 04:22:37;;;;;;;0.20;0.20;;;13.00;99.90;;;;;;20679356;28;20226;-73
2021/05/26 04:32:42;;;;;;;0.20;0.10;;;13.10;99.90;;;;;;20679716;28;20211;-71
2021/05/26 04:42:45;;;;;;;1.13;0.83;;;12.80;99.90;;;;;;20687158;28;20222;-73
2021/05/26 04:52:49;;;;;;;1.47;1.03;;;12.80;99.90;;;;;;20709349;28;20191;-72
2021/05/26 05:02:53;;;;;;;0.20;0.10;;;13.20;99.90;;;;;;20706642;28;20357;-74
2021/05/26 05:12:57;;;;;;;0.20;0.00;;;13.30;99.90;;;;;;20706237;28;20198;-71
2021/05/26 05:23:03;;;;;;;0.20;0.20;;;13.50;99.90;;;;;;20689365;28;20233;-71
2021/05/26 05:33:07;;;;;;;0.93;0.63;;;14.20;99.90;;;;;;20717807;28;20197;-75
2021/05/26 05:43:12;;;;;;;0.57;0.37;;;14.80;99.90;;;;;;20700782;28;20856;-71
2021/05/26 05:53:16;;;;;;;2.13;1.27;;;15.20;99.90;;;;;;20701498;28;20203;-71
2021/05/26 06:03:19;;;;;;;19.83;1.23;;;15.60;99.90;;;;;;20701523;28;20341;-69
2021/05/26 06:13:23;;;;;;;1.03;0.30;;;16.00;99.90;;;;;;20636220;28;20195;-73
2021/05/26 06:23:26;;;;;;;1.07;0.60;;;16.40;99.90;;;;;;20619908;28;20231;-73
2021/05/26 06:33:30;;;;;;;0.23;0.17;;;16.70;99.90;;;;;;20620085;28;20195;-73
2021/05/26 06:43:33;;;;;;;1.23;0.40;;;16.80;99.90;;;;;;20621912;28;21020;-73
2021/05/26 06:53:37;;;;;;;0.67;0.43;;;16.70;99.90;;;;;;20616687;28;20203;-69
2021/05/26 07:03:41;;;;;;;0.93;0.80;;;16.80;99.90;;;;;;20644962;28;20401;-70
2021/05/26 07:13:46;;;;;;;0.70;0.60;;;16.80;99.90;;;;;;20615338;28;20188;-70
2021/05/26 07:23:49;;;;;;;2.03;0.70;;;17.10;99.90;;;;;;20615725;28;20238;-69
2021/05/26 07:33:54;;;;;;;0.67;0.67;;;17.40;99.90;;;;;;20593878;28;20234;-71
2021/05/26 07:43:57;;;;;;;12.47;1.63;;;17.70;99.90;;;;;;20596565;28;20314;-71
2021/05/26 07:54:01;;;;;;;0.80;0.80;;;18.10;99.90;;;;;;20596954;28;20191;-70
2021/05/26 08:04:05;;;;;;;0.60;0.60;;;18.10;99.90;;;;;;20613152;28;20604;-67
2021/05/26 08:14:09;;;;;;;0.33;0.33;;;18.00;99.90;;;;;;20621534;28;20196;-70
2021/05/26 08:24:12;;;;;;;0.73;0.70;;;18.30;99.90;;;;;;20627571;28;20245;-74
2021/05/26 08:34:17;;;;;;;20.33;0.80;;;18.50;99.90;;;;;;20616721;28;20195;-74
2021/05/26 08:44:21;;;;;;;0.97;0.53;;;18.60;99.90;;;;;;20596347;28;20458;-73
2021/05/26 08:54:25;;;;;;;1.03;0.83;;;18.60;99.90;;;;;;20590934;28;20540;-72
2021/05/26 09:04:33;;;;;;;1.60;1.00;;;18.70;99.90;;;;;;20548278;28;20243;-72
2021/05/26 09:14:38;;;;;;;3.30;1.23;;;19.10;99.90;;;;;;20698528;28;20644;-63
2021/05/26 09:24:42;;;;;;;0.50;0.30;;;19.10;99.90;;;;;;20702574;28;20230;-63
2021/05/26 09:34:47;;;;;;;2.37;1.03;;;19.30;99.90;;;;;;20636806;28;20277;-64
2021/05/26 09:45:09;;;;;;;5.23;1.67;;;19.40;99.90;;;;;;20600812;28;20812;-64
2021/05/26 09:55:21;;;;;;;0.77;0.70;;;19.20;99.90;;;;;;20620061;28;20199;-63
2021/05/26 10:05:25;;;;;;;0.43;0.23;;;19.50;99.90;;;;;;20618317;28;20230;-61
2021/05/26 10:15:32;;;;;;;0.57;0.57;;;19.50;99.90;;;;;;20659734;28;20225;-62
2021/05/26 10:25:41;;;;;;;0.50;0.50;;;20.10;99.90;;;;;;20697988;28;20227;-64
2021/05/26 10:35:57;;;;;;;0.40;0.40;;;20.40;99.90;;;;;;20624853;28;20199;-63
2021/05/26 10:46:05;;;;;;;13.83;2.33;;;20.60;99.90;;;;;;20606454;28;20472;-61
2021/05/26 10:56:35;;;;;;;0.97;0.97;;;21.10;99.90;;;;;;20614396;28;20212;-62
2021/05/26 11:06:39;;;;;;;5.20;0.50;;;21.30;99.90;;;;;;20621935;28;20243;-60
2021/05/26 11:17:19;;;;;;;0.30;0.30;;;21.90;99.90;;;;;;20693626;28;20230;-63
2021/05/26 11:27:26;;;;;;;0.30;0.30;;;21.70;99.90;;;;;;20692640;28;20401;-62
2021/05/26 11:37:31;;;;;;;0.70;0.70;;;22.90;99.90;;;;;;20692868;28;20222;-62
2021/05/26 11:47:37;;;;;;;1.40;0.52;;;23.50;99.90;;;;;;20691171;28;20538;-61
2021/05/26 11:57:43;;;;;;;1.35;0.50;;;23.70;99.90;;;;;;20673586;28;20223;-60
2021/05/26 12:07:47;;;;;;;0.65;0.45;;;24.10;99.90;;;;;;20673890;28;20285;-62
2021/05/26 12:17:51;;;;;;;1.38;0.47;;;24.60;99.90;;;;;;20609896;28;20733;-62
2021/05/26 12:27:56;;;;;;;7.22;1.33;;;24.70;99.90;;;;;;20605289;28;20198;-61
2021/05/26 12:37:59;;;;;;;0.73;0.73;;;25.40;99.90;;;;;;20608590;28;20227;-61
2021/05/26 12:48:14;;;;;;;5.07;1.03;;;24.70;99.90;;;;;;20608184;28;20222;-63
2021/05/26 12:58:17;;;;;;;2.43;0.83;;;22.70;99.90;;;;;;20616920;28;20713;-62
2021/05/26 13:08:22;;;;;;;2.42;1.20;;;23.40;99.90;;;;;;20642003;28;20222;-63
2021/05/26 13:18:27;;;;;;;0.25;0.25;;;23.70;99.90;;;;;;20701432;28;20570;-62
2021/05/26 13:28:36;;;;;;;0.82;0.82;;;24.10;99.90;;;;;;20686152;28;20650;-62
2021/05/26 13:38:39;;;;;;;1.53;1.13;;;23.60;99.90;;;;;;20617854;28;20231;-62
2021/05/26 13:48:43;;;;;;;1.53;1.13;;;22.60;99.90;;;;;;20620441;28;20821;-62
2021/05/26 13:58:46;;;;;;;1.13;1.03;;;22.00;99.90;;;;;;20615695;28;20231;-64
2021/05/26 14:08:50;;;;;;;2.10;1.30;;;22.70;99.90;;;;;;20642865;28;20234;-62
2021/05/26 14:18:53;;;;;;;0.43;0.38;;;25.30;99.90;;;;;;20696601;28;20521;-62
2021/05/26 14:28:57;;;;;;;8.73;1.10;;;25.80;99.90;;;;;;20663009;28;20196;-62
2021/05/26 14:39:04;;;;;;;1.58;1.48;;;27.10;99.90;;;;;;20614649;28;20231;-62
2021/05/26 14:49:08;;;;;;;1.35;1.13;;;27.40;99.90;;;;;;20615644;28;20202;-61
2021/05/26 14:59:11;;;;;;;0.47;0.47;;;26.10;99.90;;;;;;20596489;28;20231;-61
2021/05/26 15:09:15;;;;;;;0.50;0.40;;;24.20;99.90;;;;;;20641222;28;20234;-62
2021/05/26 15:19:19;;;;;;;1.10;0.73;;;24.20;99.90;;;;;;20636158;28;20744;-61
2021/05/26 15:29:23;;;;;;;1.00;0.90;;;24.30;99.90;;;;;;20611427;28;20218;-60
2021/05/26 15:39:26;;;;;;;3.70;1.40;;;23.30;99.90;;;;;;20610267;28;20219;-62
2021/05/26 15:49:30;;;;;;;1.35;1.25;;;23.20;99.90;;;;;;20620502;28;20199;-62
2021/05/26 15:59:33;;;;;;;3.28;0.52;;;24.60;99.90;;;;;;20607869;28;20215;-63
2021/05/26 16:09:37;;;;;;;1.10;1.10;;;24.50;99.90;;;;;;20592732;28;20676;-68
2021/05/26 16:19:40;;;;;;;1.80;1.35;;;23.70;99.90;;;;;;20612920;28;20223;-64
2021/05/26 16:29:45;;;;;;;2.08;1.13;;;24.30;99.90;;;;;;20617432;28;20203;-62
2021/05/26 16:39:48;;;;;;;0.80;0.60;;;23.20;99.90;;;;;;20628603;28;20223;-62
2021/05/26 16:49:52;;;;;;;1.57;1.03;;;23.00;99.90;;;;;;20627906;28;20195;-62
2021/05/26 16:59:55;;;;;;;2.00;1.80;;;23.30;99.90;;;;;;20620437;28;20230;-62
2021/05/26 17:09:59;;;;;;;2.60;1.20;;;23.80;99.90;;;;;;20542148;28;20204;-62
2021/05/26 17:20:08;;;;;;;3.22;1.70;;;24.40;99.90;;;;;;20539793;28;20235;-62
2021/05/26 17:30:13;;;;;;;2.97;1.20;;;23.90;99.90;;;;;;20538592;28;20196;-62
2021/05/26 17:40:17;;;;;;;2.97;1.40;;;22.40;99.90;;;;;;20546773;28;20593;-62
2021/05/26 17:50:22;;;;;;;1.37;1.13;;;21.70;99.90;;;;;;20541879;28;20560;-62
2021/05/26 18:00:28;;;;;;;1.60;1.50;;;20.70;99.90;;;;;;20524742;28;20293;-62
2021/05/26 18:10:34;;;;;;;10.50;1.30;;;20.30;99.90;;;;;;20658583;28;20202;-62
2021/05/26 18:20:38;;;;;;;1.33;0.70;;;20.10;99.90;;;;;;20697892;28;20218;-63
2021/05/26 18:30:43;;;;;;;1.33;0.97;;;20.70;99.90;;;;;;20647831;28;20543;-62
2021/05/26 18:40:46;;;;;;;0.50;0.50;;;20.20;99.90;;;;;;20617750;28;20318;-62
2021/05/26 18:50:50;;;;;;;0.60;0.30;;;19.70;99.90;;;;;;20614079;28;20203;-61
2021/05/26 19:00:53;;;;;;;6.23;0.50;;;19.30;99.90;;;;;;20615288;28;20247;-62
2021/05/26 19:10:58;;;;;;;2.53;0.87;;;19.00;99.90;;;;;;20637749;28;20566;-63
2021/05/26 19:21:02;;;;;;;1.37;1.13;;;18.80;99.90;;;;;;20684913;28;20265;-62
2021/05/26 19:31:06;;;;;;;2.53;0.70;;;18.50;99.90;;;;;;20657567;28;20289;-61
2021/05/26 19:41:09;;;;;;;1.13;0.47;;;18.30;99.90;;;;;;20593783;28;20673;-63
2021/05/26 19:51:13;;;;;;;0.57;0.50;;;18.20;99.90;;;;;;20611023;28;20199;-62
2021/05/26 20:01:17;;;;;;;0.50;0.50;;;18.10;99.90;;;;;;20586736;28;20398;-63
2021/05/26 20:11:22;;;;;;;2.13;1.77;;;17.90;99.90;;;;;;20607657;28;20199;-61
2021/05/26 20:21:25;;;;;;;0.80;0.80;;;18.10;99.90;;;;;;20610869;28;20411;-63
2021/05/26 20:31:29;;;;;;;0.87;0.87;;;18.00;99.90;;;;;;20634325;28;20198;-62
2021/05/26 20:41:32;;;;;;;0.60;0.57;;;17.30;99.90;;;;;;20604320;28;20231;-61
2021/05/26 20:51:37;;;;;;;0.60;0.60;;;17.10;99.90;;;;;;20591634;28;20658;-61
2021/05/26 21:01:41;;;;;;;0.57;0.57;;;17.10;99.90;;;;;;20587789;28;20231;-62
2021/05/26 21:11:47;;;;;;;0.90;0.73;;;16.80;99.90;;;;;;20530931;28;20400;-62
2021/05/26 21:21:50;;;;;;;0.47;0.47;;;17.00;99.90;;;;;;20522406;28;20375;-61
2021/05/26 21:31:54;;;;;;;0.63;0.57;;;16.90;99.90;;;;;;20542403;28;20628;-62
2021/05/26 21:41:57;;;;;;;0.87;0.60;;;17.20;99.90;;;;;;20523884;28;20228;-62
2021/05/26 21:52:01;;;;;;;3.87;0.93;;;17.20;99.90;;;;;;20506682;28;20534;-62
2021/05/26 22:02:05;;;;;;;7.30;0.60;;;17.20;99.90;;;;;;20556759;28;20235;-64
2021/05/26 22:12:10;;;;;;;0.70;0.50;;;17.20;99.90;;;;;;20619257;28;20577;-62
2021/05/26 22:22:13;;;;;;;2.27;0.93;;;17.00;99.90;;;;;;20688034;28;20229;-62
2021/05/26 22:32:17;;;;;;;0.57;0.50;;;17.00;99.90;;;;;;20653647;28;20267;-63
2021/05/26 22:42:20;;;;;;;1.40;0.80;;;17.10;99.90;;;;;;20615945;28;20595;-61
2021/05/26 22:52:24;;;;;;;0.40;0.37;;;17.10;99.90;;;;;;20617291;28;20203;-61
2021/05/26 23:02:27;;;;;;;0.80;0.77;;;17.00;99.90;;;;;;20615395;28;20239;-62
2021/05/26 23:12:31;;;;;;;7.80;1.67;;;16.90;99.90;;;;;;20650567;28;20286;-62
2021/05/26 23:22:35;;;;;;;1.20;0.50;;;17.00;99.90;;;;;;20678185;28;20781;-62
2021/05/26 23:32:41;;;;;;;0.70;0.40;;;16.40;99.90;;;;;;20645325;28;20211;-61
2021/05/26 23:42:44;;;;;;;0.53;0.53;;;16.30;99.90;;;;;;20612430;28;20223;-62
2021/05/26 23:52:50;;;;;;;7.87;1.07;;;16.20;99.90;;;;;;20613471;28;20246;-61
